Portada
METAR-TAF:

METAR-TAF

Aeroports :

Oruro, Bolívia

latitud: 17-58S, longitud: 067-04W, altitud: 3072 m

Observació

L'informe es va fer fa 4 hores i 57 minuts, a les 22:00 UTC
Vent 13 kt del Nord
Temperatura 16°C
Humitat 39%
Pressió 1031 hPa
Visibilitat 10 km o més
Núvols disperses a una alçada de 2300 ft
Escasses núvols a una alçada de 2500 ft, Cumulonimbus.
Cel ennuvolat a una alçada de 20000 ft

METAR: SLOR 042200Z 01013KT 9999 SCT023 FEW025CB BKN200 16/02 Q1031

Hora: 22:57 (02:57 UTC)


TAF: manca

Observacions i pronòstics meteorològics de més de 4000 aeroports (METAR i TAF).

Les estacions disponibles són els punts grocs i vermells al mapa.

Posi el ratolí al punt desitjat per veure el nom de l'estació.

Feu clic per veure les observacions i els pronòstics meteorològics.

Per canviar el mapa: feu clic els botons verds amb una creu de color negre per apropar; al botó verd amb un guió per allunyar la imatge; o en les fletxes verdes per a mapes adjacents.


METAR-TAF: